Terminal Aerodrome Forecast
Issued by NWS

Home | Current Version | Previous Version | Text Only | Print | Product List | Glossary On
Versions: 1 2 3 4 5 6 7 8 9 10 11 12 13 14 15 16 17
000
FTUS45 KABQ 252323
TAFSAF
TAF
KSAF 252323Z 2600/2624 17010KT P6SM BKN050 BKN100
     FM260500 26011KT P6SM SCT050 BKN100
     FM261700 26014G24KT P6SM SCT060=

USA.gov is the U.S. government's official web portal to all federal, state and local government web resources and services.